Time;durP1;ratioP1;P1;durP2;ratioP2;P2;SDS_P1;SDS_P2;PMS_P1;PMS_P2;Temp;Humidity;BMP_temperature;BMP_pressure;BME280_temperature;BME280_humidity;BME280_pressure;Samples;Min_cycle;Max_cycle;Signal;HPM_P1;HPM_P2
2021/12/31 00:00:48;;;;;;;17.67;11.93;;;4.70;99.90;;;;;;4977438;28;20567;-65
2021/12/31 00:03:16;;;;;;;19.77;13.13;;;4.70;99.90;;;;;;4980180;28;20039;-65
2021/12/31 00:05:42;;;;;;;18.27;12.00;;;4.70;99.90;;;;;;4978165;28;20723;-65
2021/12/31 00:08:08;;;;;;;20.65;13.93;;;4.70;99.90;;;;;;4977193;28;20729;-65
2021/12/31 00:10:34;;;;;;;18.98;13.45;;;4.70;99.90;;;;;;4972762;28;20157;-65
2021/12/31 00:13:00;;;;;;;17.40;12.40;;;4.60;99.90;;;;;;4980545;28;20038;-66
2021/12/31 00:15:26;;;;;;;15.63;12.35;;;4.70;99.90;;;;;;4981044;28;20768;-65
2021/12/31 00:17:52;;;;;;;14.68;11.50;;;4.80;99.90;;;;;;4983962;28;20031;-65
2021/12/31 00:20:21;;;;;;;16.83;12.13;;;4.80;99.90;;;;;;4983156;28;20030;-65
2021/12/31 00:25:19;;;;;;;17.25;12.13;;;4.80;99.90;;;;;;4980001;28;20117;-65
2021/12/31 00:27:45;;;;;;;15.27;11.02;;;4.80;99.90;;;;;;4983954;28;20039;-65
2021/12/31 00:30:12;;;;;;;13.88;10.60;;;4.80;99.90;;;;;;4979088;28;20045;-64
2021/12/31 00:32:37;;;;;;;14.85;11.18;;;4.70;99.90;;;;;;4981913;28;20027;-64
2021/12/31 00:35:04;;;;;;;14.63;10.40;;;4.60;99.90;;;;;;4975942;28;20500;-64
2021/12/31 00:37:32;;;;;;;13.93;9.88;;;4.70;99.90;;;;;;4975693;28;20121;-64
2021/12/31 00:39:59;;;;;;;17.55;11.65;;;4.70;99.90;;;;;;4980093;28;20031;-65
2021/12/31 00:42:25;;;;;;;18.13;11.40;;;4.70;99.90;;;;;;4977975;28;20074;-65
2021/12/31 00:44:51;;;;;;;16.77;11.73;;;4.80;99.90;;;;;;4981000;28;20043;-65
2021/12/31 00:47:17;;;;;;;17.50;12.65;;;4.80;99.90;;;;;;4977844;28;20081;-65
2021/12/31 00:49:43;;;;;;;13.90;11.48;;;4.80;99.90;;;;;;4980196;28;20160;-65
2021/12/31 00:52:08;;;;;;;14.05;10.55;;;4.70;99.90;;;;;;4978418;28;20030;-66
2021/12/31 00:54:34;;;;;;;18.33;12.93;;;4.60;99.90;;;;;;4976519;28;20034;-66
2021/12/31 00:57:03;;;;;;;16.63;11.10;;;4.60;99.90;;;;;;4980383;28;20109;-65
2021/12/31 00:59:33;;;;;;;16.02;12.00;;;4.50;99.90;;;;;;4976789;28;20053;-65
2021/12/31 01:01:59;;;;;;;18.08;11.93;;;4.50;99.90;;;;;;4978463;28;20038;-64
2021/12/31 01:04:26;;;;;;;18.52;12.93;;;4.30;99.90;;;;;;4980008;28;20038;-65
2021/12/31 01:06:52;;;;;;;15.98;11.82;;;4.40;99.90;;;;;;4979037;28;20026;-65
2021/12/31 01:09:17;;;;;;;17.75;11.90;;;4.40;99.90;;;;;;4978078;28;20509;-64
2021/12/31 01:11:47;;;;;;;16.98;11.95;;;4.50;99.90;;;;;;4982268;28;20504;-64
2021/12/31 01:17:12;;;;;;;18.20;12.82;;;4.60;99.90;;;;;;4966785;28;20042;-65
2021/12/31 01:19:48;;;;;;;18.90;13.95;;;4.60;99.90;;;;;;4979092;28;20038;-65
2021/12/31 01:22:30;;;;;;;18.80;13.05;;;4.60;99.90;;;;;;4980130;28;20027;-66
2021/12/31 01:24:57;;;;;;;16.42;12.57;;;4.50;99.90;;;;;;4978334;28;20037;-66
2021/12/31 01:27:22;;;;;;;15.23;11.60;;;4.60;99.90;;;;;;4982821;28;20620;-66
2021/12/31 01:29:49;;;;;;;15.40;12.10;;;4.70;99.90;;;;;;4978902;28;20132;-65
2021/12/31 01:32:14;;;;;;;14.55;11.43;;;4.70;99.90;;;;;;4979206;28;20045;-65
2021/12/31 01:34:40;;;;;;;17.30;11.70;;;4.80;99.90;;;;;;4980997;28;20421;-65
2021/12/31 01:37:07;;;;;;;13.25;9.82;;;4.80;99.90;;;;;;4977924;28;20093;-66
2021/12/31 01:39:35;;;;;;;13.55;10.05;;;4.70;99.90;;;;;;4976046;28;20784;-66
2021/12/31 01:42:02;;;;;;;14.45;11.07;;;4.70;99.90;;;;;;4979654;28;20096;-66
2021/12/31 01:44:40;;;;;;;12.75;9.60;;;4.60;99.90;;;;;;4975479;28;20049;-66
2021/12/31 01:47:11;;;;;;;16.30;12.00;;;4.70;99.90;;;;;;4977178;28;20089;-65
2021/12/31 01:49:40;;;;;;;17.45;11.75;;;4.70;99.90;;;;;;4978327;28;20089;-66
2021/12/31 01:52:09;;;;;;;14.82;11.30;;;4.70;99.90;;;;;;4978675;28;20046;-66
2021/12/31 01:54:37;;;;;;;18.63;13.20;;;4.60;99.90;;;;;;4979761;28;20046;-66
2021/12/31 01:57:05;;;;;;;15.75;12.30;;;4.50;99.90;;;;;;4977669;28;20389;-66
2021/12/31 01:59:35;;;;;;;20.05;13.43;;;4.60;99.90;;;;;;4977949;28;20019;-65
2021/12/31 02:02:00;;;;;;;16.70;12.98;;;4.50;99.90;;;;;;4977949;28;20536;-66
2021/12/31 02:04:29;;;;;;;16.33;12.75;;;4.50;99.90;;;;;;4978766;28;20031;-66
2021/12/31 02:06:55;;;;;;;18.88;12.70;;;4.60;99.90;;;;;;4976472;28;20026;-66
2021/12/31 02:09:21;;;;;;;15.75;12.32;;;4.60;99.90;;;;;;4977408;28;20034;-65
2021/12/31 02:11:46;;;;;;;17.25;12.43;;;4.50;99.90;;;;;;4978286;28;20109;-65
2021/12/31 02:14:12;;;;;;;14.32;11.10;;;4.50;99.90;;;;;;4976740;28;20038;-66
2021/12/31 02:16:38;;;;;;;14.27;11.63;;;4.50;99.90;;;;;;4976988;28;20168;-66
2021/12/31 02:19:25;;;;;;;15.82;11.60;;;4.50;99.90;;;;;;4983780;28;20130;-65
2021/12/31 02:21:51;;;;;;;13.60;10.68;;;4.50;99.90;;;;;;4976894;28;20055;-66
2021/12/31 02:24:18;;;;;;;15.35;11.98;;;4.50;99.90;;;;;;4974370;28;20027;-66
2021/12/31 02:26:44;;;;;;;14.98;11.25;;;4.60;99.90;;;;;;4973094;28;20057;-66
2021/12/31 02:29:09;;;;;;;14.73;10.88;;;4.60;99.90;;;;;;4981849;28;20039;-67
2021/12/31 02:31:35;;;;;;;14.45;11.10;;;4.70;99.90;;;;;;4981313;28;20198;-66
2021/12/31 02:34:01;;;;;;;13.25;10.07;;;4.80;99.90;;;;;;4975978;28;20066;-66
2021/12/31 02:36:27;;;;;;;13.13;10.05;;;4.80;99.90;;;;;;4973797;28;20034;-66
2021/12/31 02:38:52;;;;;;;13.68;10.80;;;4.90;99.90;;;;;;4977612;28;20038;-66
2021/12/31 02:41:18;;;;;;;13.50;10.48;;;4.90;99.90;;;;;;4975478;28;20031;-66
2021/12/31 02:43:44;;;;;;;11.23;9.95;;;4.90;99.90;;;;;;4975798;28;20035;-66
2021/12/31 02:46:09;;;;;;;11.68;9.32;;;4.90;99.90;;;;;;4978466;28;20053;-66
2021/12/31 02:48:35;;;;;;;12.77;9.60;;;4.90;99.90;;;;;;4981026;28;20038;-66
2021/12/31 02:51:02;;;;;;;12.20;9.52;;;4.90;99.90;;;;;;4979372;28;20066;-66
2021/12/31 02:53:40;;;;;;;14.00;9.45;;;4.90;99.90;;;;;;4981754;28;20764;-66
2021/12/31 02:56:09;;;;;;;13.38;10.65;;;4.90;99.90;;;;;;4982093;28;20030;-66
2021/12/31 02:58:36;;;;;;;15.45;10.65;;;5.00;99.90;;;;;;4982974;28;20057;-66
2021/12/31 03:01:03;;;;;;;11.35;9.32;;;4.80;99.90;;;;;;4977171;28;20097;-66
2021/12/31 03:03:32;;;;;;;12.27;9.93;;;4.80;99.90;;;;;;4980597;28;20050;-66
2021/12/31 03:05:58;;;;;;;11.85;9.50;;;4.80;99.90;;;;;;4979458;28;20041;-66
2021/12/31 03:08:29;;;;;;;12.70;9.90;;;4.90;99.90;;;;;;4980849;28;20034;-66
2021/12/31 03:10:56;;;;;;;20.92;15.60;;;5.00;99.90;;;;;;4980287;28;20041;-67
2021/12/31 03:13:23;;;;;;;12.70;10.00;;;5.00;99.90;;;;;;4981738;28;20031;-66
2021/12/31 03:15:50;;;;;;;14.18;11.05;;;5.00;99.90;;;;;;4976150;28;20511;-66
2021/12/31 03:18:18;;;;;;;14.15;10.13;;;5.00;99.90;;;;;;4979398;28;20499;-66
2021/12/31 03:20:57;;;;;;;13.48;11.60;;;4.90;99.90;;;;;;4977863;28;20023;-66
2021/12/31 03:23:24;;;;;;;13.80;10.25;;;4.90;99.90;;;;;;4979167;28;20046;-67
2021/12/31 03:25:50;;;;;;;18.13;14.10;;;4.90;99.90;;;;;;4981299;28;20027;-66
2021/12/31 03:28:15;;;;;;;12.63;10.57;;;5.00;99.90;;;;;;4978064;28;22163;-66
2021/12/31 03:30:41;;;;;;;19.70;16.45;;;5.00;99.90;;;;;;4974176;28;20088;-66
2021/12/31 03:33:07;;;;;;;12.95;10.85;;;5.00;99.90;;;;;;4972015;28;20496;-65
2021/12/31 03:35:32;;;;;;;18.50;14.05;;;4.90;99.90;;;;;;4974198;28;20134;-66
2021/12/31 03:37:58;;;;;;;12.90;9.63;;;4.90;99.90;;;;;;4979051;28;20083;-66
2021/12/31 03:40:24;;;;;;;14.77;11.70;;;4.90;99.90;;;;;;4979564;28;20096;-66
2021/12/31 03:42:49;;;;;;;14.20;11.00;;;5.00;99.90;;;;;;4978830;28;20034;-66
2021/12/31 03:45:15;;;;;;;15.00;12.02;;;5.10;99.90;;;;;;4979301;28;20101;-66
2021/12/31 03:47:40;;;;;;;15.95;11.52;;;5.10;99.90;;;;;;4977569;28;20112;-66
2021/12/31 03:50:06;;;;;;;14.07;10.77;;;5.10;99.90;;;;;;4977976;28;20058;-66
2021/12/31 03:52:37;;;;;;;12.70;10.10;;;5.10;99.90;;;;;;4977999;28;20057;-66
2021/12/31 03:55:04;;;;;;;12.45;9.95;;;5.10;99.90;;;;;;4978294;28;20018;-66
2021/12/31 03:57:30;;;;;;;13.45;11.23;;;5.00;99.90;;;;;;4976515;28;20030;-66
2021/12/31 03:59:55;;;;;;;15.07;10.32;;;5.10;99.90;;;;;;4975307;28;20042;-67
2021/12/31 04:02:21;;;;;;;15.70;11.57;;;5.10;99.90;;;;;;4974374;28;20026;-67
2021/12/31 04:04:47;;;;;;;15.75;11.52;;;5.00;99.90;;;;;;4972501;28;20049;-66
2021/12/31 04:07:12;;;;;;;15.82;11.75;;;5.10;99.90;;;;;;4969956;28;20098;-66
2021/12/31 04:09:38;;;;;;;12.90;10.63;;;5.10;99.90;;;;;;4977980;28;20030;-67
2021/12/31 04:12:04;;;;;;;12.50;10.07;;;5.00;99.90;;;;;;4977185;28;20038;-66
2021/12/31 04:14:29;;;;;;;14.48;11.02;;;4.90;99.90;;;;;;4976318;28;20834;-67
2021/12/31 04:16:55;;;;;;;14.82;11.35;;;4.90;99.90;;;;;;4974584;28;20038;-67
2021/12/31 04:19:21;;;;;;;14.57;10.32;;;4.80;99.90;;;;;;4977710;28;20505;-67
2021/12/31 04:21:49;;;;;;;12.68;10.07;;;4.80;99.90;;;;;;4974785;28;20035;-66
2021/12/31 04:24:26;;;;;;;13.57;9.93;;;4.80;99.90;;;;;;4976193;28;20084;-66
2021/12/31 04:26:52;;;;;;;14.68;10.25;;;4.80;99.90;;;;;;4976056;28;20046;-66
2021/12/31 04:29:18;;;;;;;13.15;9.77;;;4.80;99.90;;;;;;4976798;28;20141;-67
2021/12/31 04:31:43;;;;;;;14.93;11.20;;;4.90;99.90;;;;;;4971222;28;20425;-66
2021/12/31 04:34:09;;;;;;;15.15;11.30;;;4.90;99.90;;;;;;4973422;28;20031;-66
2021/12/31 04:36:35;;;;;;;14.48;11.15;;;4.90;99.90;;;;;;4978728;28;20432;-66
2021/12/31 04:39:01;;;;;;;19.27;10.45;;;5.00;99.90;;;;;;4978812;28;20041;-67
2021/12/31 04:41:26;;;;;;;11.48;9.38;;;5.00;99.90;;;;;;4978847;28;20520;-66
2021/12/31 04:43:52;;;;;;;14.73;11.50;;;5.00;99.90;;;;;;4981229;28;20030;-67
2021/12/31 04:46:17;;;;;;;13.43;10.85;;;5.10;99.90;;;;;;4980134;28;20039;-67
2021/12/31 04:48:43;;;;;;;8.55;6.80;;;5.20;99.90;;;;;;4980543;28;20715;-66
2021/12/31 04:51:09;;;;;;;13.25;9.77;;;5.30;99.90;;;;;;4978035;28;20121;-67
2021/12/31 04:53:34;;;;;;;14.48;10.15;;;5.50;99.90;;;;;;4980244;28;20038;-67
2021/12/31 04:56:00;;;;;;;10.60;8.13;;;5.50;99.90;;;;;;4978269;28;20433;-66
2021/12/31 04:58:26;;;;;;;14.07;10.95;;;5.80;99.90;;;;;;4979113;28;20045;-67
2021/12/31 05:00:52;;;;;;;13.07;9.40;;;6.10;99.90;;;;;;4978639;28;20034;-67
2021/12/31 05:03:18;;;;;;;13.10;10.02;;;6.30;99.90;;;;;;4982921;28;20114;-67
2021/12/31 05:05:43;;;;;;;12.10;10.15;;;6.30;99.90;;;;;;4978382;28;20118;-66
2021/12/31 05:08:09;;;;;;;12.35;9.25;;;6.50;99.90;;;;;;4980771;28;20077;-66
2021/12/31 05:10:35;;;;;;;12.25;9.43;;;6.50;99.90;;;;;;4980774;28;20056;-67
2021/12/31 05:13:03;;;;;;;12.90;10.45;;;6.50;99.90;;;;;;4976946;28;20045;-66
2021/12/31 05:15:33;;;;;;;9.27;7.97;;;6.60;99.90;;;;;;4974766;28;20033;-67
2021/12/31 05:17:59;;;;;;;10.85;9.75;;;6.60;99.90;;;;;;4980531;28;20062;-67
2021/12/31 05:20:24;;;;;;;59.47;53.53;;;6.80;99.90;;;;;;4976455;28;20146;-67
2021/12/31 05:22:52;;;;;;;21.15;19.15;;;7.10;99.90;;;;;;4982324;28;20038;-66
2021/12/31 05:25:18;;;;;;;100.68;85.20;;;7.40;99.90;;;;;;4979756;28;20142;-67
2021/12/31 05:27:44;;;;;;;38.10;33.97;;;7.60;99.90;;;;;;4979190;28;20543;-67
2021/12/31 05:30:11;;;;;;;27.73;24.52;;;7.70;99.90;;;;;;4978674;28;20038;-67
2021/12/31 05:32:36;;;;;;;46.47;42.22;;;7.80;99.90;;;;;;4980459;28;20105;-66
2021/12/31 05:35:02;;;;;;;4.57;4.18;;;8.10;99.90;;;;;;4979385;28;20604;-67
2021/12/31 05:37:28;;;;;;;3.10;1.30;;;8.40;99.90;;;;;;4980683;28;20566;-67
2021/12/31 05:39:54;;;;;;;0.93;0.80;;;9.10;99.90;;;;;;4973043;28;20118;-67
2021/12/31 05:42:19;;;;;;;0.80;0.80;;;9.60;99.90;;;;;;4974045;28;20034;-67
2021/12/31 05:44:48;;;;;;;1.13;1.02;;;10.10;99.90;;;;;;4973980;28;20745;-67
2021/12/31 05:47:13;;;;;;;0.82;0.82;;;10.40;99.90;;;;;;5004826;28;21073;-67
2021/12/31 05:49:39;;;;;;;1.10;1.00;;;10.70;99.90;;;;;;4974559;28;20054;-67
2021/12/31 05:52:05;;;;;;;3.67;0.80;;;11.00;99.90;;;;;;4973505;28;20031;-67
2021/12/31 05:54:31;;;;;;;0.68;0.68;;;11.20;99.90;;;;;;4971431;28;20042;-67
2021/12/31 05:56:57;;;;;;;0.88;0.77;;;11.20;99.90;;;;;;4970169;28;20046;-68
2021/12/31 05:59:22;;;;;;;1.15;1.05;;;11.10;99.90;;;;;;4975417;28;20035;-68
2021/12/31 06:01:48;;;;;;;1.67;1.00;;;11.20;99.90;;;;;;4982021;28;20042;-67
2021/12/31 06:04:17;;;;;;;1.60;1.50;;;11.30;99.90;;;;;;4980466;28;20053;-67
2021/12/31 06:06:43;;;;;;;1.45;0.68;;;11.40;99.90;;;;;;4980998;28;20129;-65
2021/12/31 06:09:11;;;;;;;1.15;1.00;;;11.50;99.90;;;;;;4980675;28;20036;-66
2021/12/31 06:11:37;;;;;;;1.00;0.77;;;11.60;99.90;;;;;;4984088;28;20031;-67
2021/12/31 06:14:05;;;;;;;1.38;0.88;;;11.60;99.90;;;;;;4978516;28;20019;-67
2021/12/31 06:16:42;;;;;;;1.58;0.95;;;11.60;99.90;;;;;;4980966;28;20401;-67
2021/12/31 06:19:09;;;;;;;1.90;0.88;;;11.60;99.90;;;;;;4982185;28;20037;-67
2021/12/31 06:21:37;;;;;;;0.98;0.85;;;11.70;99.90;;;;;;4980047;28;20066;-67
2021/12/31 06:24:03;;;;;;;1.80;1.17;;;11.80;99.90;;;;;;4981924;28;20089;-66
2021/12/31 06:26:29;;;;;;;1.50;1.00;;;11.80;99.90;;;;;;4982920;28;20042;-67
2021/12/31 06:28:55;;;;;;;1.83;1.10;;;11.70;99.90;;;;;;4980845;28;20755;-66
2021/12/31 06:31:21;;;;;;;0.68;0.60;;;11.70;99.90;;;;;;4985768;28;20089;-66
2021/12/31 06:33:47;;;;;;;1.67;0.98;;;11.80;99.90;;;;;;4982331;28;20467;-67
2021/12/31 06:36:12;;;;;;;2.88;1.30;;;11.80;99.90;;;;;;4979625;28;20057;-66
2021/12/31 06:38:38;;;;;;;1.05;0.98;;;11.80;99.90;;;;;;4980350;28;20030;-66
2021/12/31 06:41:04;;;;;;;4.72;0.90;;;11.70;99.90;;;;;;4985845;28;20420;-65
2021/12/31 06:43:29;;;;;;;0.82;0.82;;;11.70;99.90;;;;;;4981935;28;20026;-66
2021/12/31 06:45:55;;;;;;;0.95;0.85;;;11.70;99.90;;;;;;4977381;28;20392;-65
2021/12/31 06:48:21;;;;;;;2.33;0.93;;;11.70;99.90;;;;;;4977761;28;20055;-66
2021/12/31 06:50:46;;;;;;;1.30;1.02;;;11.70;99.90;;;;;;4982177;28;20140;-66
2021/12/31 06:53:12;;;;;;;0.70;0.70;;;11.70;99.90;;;;;;4980003;28;20440;-66
2021/12/31 06:55:37;;;;;;;1.88;0.95;;;11.70;99.90;;;;;;4981002;28;20042;-66
2021/12/31 06:58:03;;;;;;;1.55;0.90;;;11.80;99.90;;;;;;4985560;28;20034;-66
2021/12/31 07:00:29;;;;;;;2.72;1.05;;;11.80;99.90;;;;;;4982309;28;20037;-66
2021/12/31 07:03:11;;;;;;;2.40;0.88;;;11.80;99.90;;;;;;4984676;28;20061;-66
2021/12/31 07:05:39;;;;;;;0.98;0.80;;;11.80;99.90;;;;;;4982642;28;20572;-65
2021/12/31 07:08:05;;;;;;;1.20;1.10;;;11.80;99.90;;;;;;4984357;28;20042;-64
2021/12/31 07:10:31;;;;;;;1.55;1.33;;;11.80;99.90;;;;;;4980217;28;20074;-65
2021/12/31 07:13:01;;;;;;;1.08;0.98;;;11.80;99.90;;;;;;4982584;28;20446;-64
2021/12/31 07:15:27;;;;;;;1.92;1.10;;;11.80;99.90;;;;;;4983920;28;20384;-65
2021/12/31 07:17:53;;;;;;;3.20;1.40;;;11.70;99.90;;;;;;4983221;28;20082;-64
2021/12/31 07:20:20;;;;;;;0.70;0.70;;;11.70;99.90;;;;;;4980273;28;20109;-64
2021/12/31 07:22:46;;;;;;;1.55;0.82;;;11.80;99.90;;;;;;4983492;28;20029;-64
2021/12/31 07:25:12;;;;;;;1.15;0.68;;;11.80;99.90;;;;;;4982150;28;20015;-64
2021/12/31 07:27:38;;;;;;;3.15;1.00;;;11.80;99.90;;;;;;4984071;28;20543;-64
2021/12/31 07:30:04;;;;;;;2.83;1.25;;;11.80;99.90;;;;;;4982307;28;20061;-63
2021/12/31 07:32:35;;;;;;;1.25;0.60;;;11.80;99.90;;;;;;4980616;28;20034;-64
2021/12/31 07:35:01;;;;;;;2.67;0.70;;;11.80;99.90;;;;;;4978646;28;20457;-64
2021/12/31 07:37:26;;;;;;;1.02;0.77;;;11.80;99.90;;;;;;4978213;28;20038;-64
2021/12/31 07:39:59;;;;;;;1.42;0.90;;;11.80;99.90;;;;;;4981159;28;20125;-63
2021/12/31 07:42:25;;;;;;;0.85;0.60;;;11.70;99.90;;;;;;4983756;28;20053;-64
2021/12/31 07:44:51;;;;;;;0.65;0.55;;;11.70;99.90;;;;;;4980076;28;20043;-64
2021/12/31 07:47:16;;;;;;;2.60;0.90;;;11.70;99.90;;;;;;4983575;28;20119;-64
2021/12/31 07:49:42;;;;;;;1.75;0.60;;;11.70;99.90;;;;;;4981724;28;20085;-64
2021/12/31 07:52:07;;;;;;;0.57;0.50;;;11.70;99.90;;;;;;4981683;28;20049;-65
2021/12/31 07:54:33;;;;;;;0.40;0.40;;;11.70;99.90;;;;;;4983056;28;20031;-65
2021/12/31 07:56:59;;;;;;;1.42;0.55;;;11.70;99.90;;;;;;4980953;28;20030;-65
2021/12/31 07:59:24;;;;;;;0.50;0.50;;;11.70;99.90;;;;;;4981280;28;20104;-66
2021/12/31 08:01:50;;;;;;;0.65;0.25;;;11.70;99.90;;;;;;4978495;28;20042;-65
2021/12/31 08:04:16;;;;;;;1.80;0.50;;;11.80;99.90;;;;;;4980380;28;20404;-66
2021/12/31 08:06:41;;;;;;;1.67;0.55;;;11.80;99.90;;;;;;4980292;28;20046;-65
2021/12/31 08:09:07;;;;;;;1.40;1.30;;;11.80;99.90;;;;;;4982958;28;20038;-65
2021/12/31 08:11:32;;;;;;;2.47;0.50;;;11.90;99.90;;;;;;4982231;28;20038;-65
2021/12/31 08:13:58;;;;;;;0.68;0.50;;;12.00;99.90;;;;;;4979653;28;20043;-65
2021/12/31 08:16:24;;;;;;;1.85;0.57;;;12.10;99.90;;;;;;4976713;28;20062;-64
2021/12/31 08:18:49;;;;;;;3.67;0.52;;;12.20;99.90;;;;;;4974611;28;22716;-65
2021/12/31 08:21:15;;;;;;;2.22;0.63;;;12.30;99.90;;;;;;4979783;28;20608;-64
2021/12/31 08:23:41;;;;;;;0.40;0.40;;;12.50;99.90;;;;;;4976185;28;20445;-64
2021/12/31 08:26:06;;;;;;;3.05;0.55;;;12.50;99.90;;;;;;4978502;28;20035;-64
2021/12/31 08:28:32;;;;;;;0.38;0.38;;;12.60;99.90;;;;;;4979997;28;20039;-65
2021/12/31 08:30:58;;;;;;;2.05;0.55;;;12.60;99.90;;;;;;4981039;28;20019;-64
2021/12/31 08:33:25;;;;;;;0.55;0.40;;;12.70;99.90;;;;;;4983213;28;20057;-65
2021/12/31 08:35:51;;;;;;;2.05;0.70;;;12.70;99.90;;;;;;4977796;28;20074;-64
2021/12/31 08:38:16;;;;;;;3.30;0.75;;;12.60;99.90;;;;;;4976338;28;21395;-64
2021/12/31 08:40:42;;;;;;;1.83;0.70;;;12.70;99.90;;;;;;4979977;28;20033;-64
2021/12/31 08:43:08;;;;;;;2.67;1.00;;;12.70;99.90;;;;;;4979657;28;20022;-65
2021/12/31 08:45:34;;;;;;;0.43;0.43;;;12.80;99.90;;;;;;4979517;28;20088;-64
2021/12/31 08:48:00;;;;;;;1.77;0.98;;;12.80;99.90;;;;;;4982614;28;20034;-64
2021/12/31 08:50:27;;;;;;;0.88;0.68;;;13.00;99.90;;;;;;4981476;28;20058;-64
2021/12/31 08:52:53;;;;;;;1.15;0.60;;;13.00;99.90;;;;;;4976889;28;20084;-64
2021/12/31 08:55:19;;;;;;;1.33;0.75;;;13.10;99.90;;;;;;4981520;28;20030;-65
2021/12/31 08:57:44;;;;;;;1.70;0.40;;;13.20;99.90;;;;;;4977035;28;20094;-64
2021/12/31 09:00:11;;;;;;;1.75;0.88;;;13.20;99.90;;;;;;4981913;28;20026;-65
2021/12/31 09:02:39;;;;;;;0.73;0.40;;;13.20;99.90;;;;;;4982121;28;20129;-64
2021/12/31 09:05:06;;;;;;;0.93;0.32;;;13.30;99.90;;;;;;4982504;28;20034;-66
2021/12/31 09:07:32;;;;;;;1.02;0.40;;;13.30;99.90;;;;;;4983587;28;20525;-64
2021/12/31 09:09:58;;;;;;;0.88;0.70;;;13.40;99.90;;;;;;4977121;28;20093;-65
2021/12/31 09:12:24;;;;;;;1.88;1.08;;;13.40;99.90;;;;;;4981693;28;21241;-65
2021/12/31 09:14:50;;;;;;;1.02;0.40;;;13.40;99.90;;;;;;4979011;28;20022;-66
2021/12/31 09:17:16;;;;;;;2.13;0.52;;;13.40;99.90;;;;;;4983807;28;20113;-66
2021/12/31 09:19:42;;;;;;;1.10;0.85;;;13.40;99.90;;;;;;4978420;28;20042;-66
2021/12/31 09:22:09;;;;;;;0.88;0.70;;;13.40;99.90;;;;;;4978360;28;20054;-64
2021/12/31 09:24:35;;;;;;;0.55;0.40;;;13.50;99.90;;;;;;4976516;28;20031;-66
2021/12/31 09:27:01;;;;;;;0.30;0.30;;;13.50;99.90;;;;;;4979572;28;20045;-65
2021/12/31 09:29:27;;;;;;;1.23;0.30;;;13.50;99.90;;;;;;4978885;28;20023;-66
2021/12/31 09:31:53;;;;;;;1.30;0.60;;;13.60;99.90;;;;;;4984937;28;20034;-66
2021/12/31 09:34:19;;;;;;;2.50;0.30;;;13.60;99.90;;;;;;4977704;28;20049;-65
2021/12/31 09:36:45;;;;;;;0.10;0.10;;;13.70;99.90;;;;;;4978059;28;20034;-66
2021/12/31 09:39:11;;;;;;;3.47;0.40;;;13.80;99.90;;;;;;4974614;28;20026;-66
2021/12/31 09:41:37;;;;;;;1.02;0.40;;;13.80;99.90;;;;;;4983624;28;20555;-65
2021/12/31 09:44:03;;;;;;;1.13;0.50;;;13.80;99.90;;;;;;4980850;28;20031;-66
2021/12/31 09:46:29;;;;;;;0.30;0.30;;;13.80;99.90;;;;;;4977548;28;20033;-66
2021/12/31 09:48:54;;;;;;;0.63;0.20;;;13.80;99.90;;;;;;4977138;28;20034;-66
2021/12/31 09:51:23;;;;;;;0.30;0.20;;;13.90;99.90;;;;;;4940954;28;1111937;-66
2021/12/31 09:53:51;;;;;;;0.68;0.32;;;13.90;99.90;;;;;;4978864;28;20022;-66
2021/12/31 09:56:16;;;;;;;0.65;0.30;;;13.90;99.90;;;;;;4981887;28;20053;-66
2021/12/31 09:58:43;;;;;;;0.30;0.30;;;13.90;99.90;;;;;;4979511;28;20026;-66
2021/12/31 10:01:09;;;;;;;0.82;0.43;;;13.90;99.90;;;;;;4982843;28;20058;-66
2021/12/31 10:03:36;;;;;;;0.20;0.20;;;13.90;99.90;;;;;;4977830;28;20074;-66
2021/12/31 10:06:06;;;;;;;0.32;0.20;;;13.90;99.90;;;;;;4981709;28;20021;-66
2021/12/31 10:08:42;;;;;;;0.30;0.30;;;13.90;99.90;;;;;;4977557;28;20062;-66
2021/12/31 10:11:20;;;;;;;0.30;0.30;;;13.90;99.90;;;;;;4980024;28;20033;-66
2021/12/31 10:13:55;;;;;;;0.40;0.38;;;13.90;99.90;;;;;;4977769;28;20034;-66
2021/12/31 10:16:22;;;;;;;0.40;0.20;;;13.90;99.90;;;;;;4978877;28;20052;-64
2021/12/31 10:18:49;;;;;;;0.50;0.40;;;13.90;99.90;;;;;;4978977;28;20030;-64
2021/12/31 10:21:19;;;;;;;0.30;0.20;;;13.90;99.90;;;;;;4981342;28;20030;-65
2021/12/31 10:23:47;;;;;;;0.65;0.40;;;13.90;99.90;;;;;;4979213;28;20037;-64
2021/12/31 10:26:15;;;;;;;0.50;0.43;;;13.90;99.90;;;;;;4981694;28;20030;-65
2021/12/31 10:28:57;;;;;;;1.65;1.00;;;13.90;99.90;;;;;;4980739;28;20104;-64
2021/12/31 10:31:24;;;;;;;0.73;0.30;;;14.00;99.90;;;;;;4980149;28;20137;-64
2021/12/31 10:33:51;;;;;;;0.32;0.32;;;14.00;99.90;;;;;;4979096;28;20030;-64
2021/12/31 10:36:37;;;;;;;0.45;0.40;;;14.10;99.90;;;;;;4980193;28;20037;-64
2021/12/31 10:39:18;;;;;;;1.10;0.20;;;14.10;99.90;;;;;;4983038;28;20476;-64
2021/12/31 10:41:45;;;;;;;0.30;0.30;;;14.10;99.60;;;;;;4978767;28;20100;-64
2021/12/31 10:44:11;;;;;;;0.60;0.38;;;14.20;99.40;;;;;;4983001;28;20018;-64
2021/12/31 10:46:37;;;;;;;0.50;0.20;;;14.20;99.90;;;;;;4983599;28;20377;-64
2021/12/31 10:49:09;;;;;;;0.75;0.38;;;14.20;99.80;;;;;;4984092;28;20111;-66
2021/12/31 10:51:39;;;;;;;1.38;0.40;;;14.30;99.80;;;;;;4983799;28;20045;-63
2021/12/31 10:54:44;;;;;;;0.40;0.40;;;14.30;99.30;;;;;;4984334;28;20030;-64
2021/12/31 10:57:10;;;;;;;0.50;0.45;;;14.40;99.30;;;;;;4983699;28;20026;-64
2021/12/31 10:59:37;;;;;;;0.68;0.30;;;14.40;99.20;;;;;;4986248;28;20038;-64
2021/12/31 11:02:06;;;;;;;1.92;0.30;;;14.40;99.10;;;;;;4984924;28;20022;-64
2021/12/31 11:04:34;;;;;;;0.20;0.20;;;14.50;98.40;;;;;;4982436;28;20113;-65
2021/12/31 11:07:00;;;;;;;0.77;0.68;;;14.50;98.10;;;;;;4984422;28;20034;-64
2021/12/31 11:09:29;;;;;;;1.20;0.40;;;14.50;98.20;;;;;;4984457;28;20037;-64
2021/12/31 11:11:57;;;;;;;0.88;0.57;;;14.60;98.20;;;;;;4985477;28;20034;-65
2021/12/31 11:14:24;;;;;;;0.30;0.20;;;14.50;98.00;;;;;;4983134;28;20544;-65
2021/12/31 11:16:49;;;;;;;0.98;0.38;;;14.50;97.40;;;;;;4981175;28;20035;-64
2021/12/31 11:19:16;;;;;;;0.60;0.40;;;14.40;97.40;;;;;;4983315;28;20700;-64
2021/12/31 11:21:43;;;;;;;1.08;0.70;;;14.40;98.00;;;;;;4979728;28;20030;-64
2021/12/31 11:24:33;;;;;;;1.95;1.10;;;14.40;98.10;;;;;;4983424;28;20516;-64
2021/12/31 11:27:19;;;;;;;2.10;1.30;;;14.40;98.30;;;;;;5013477;28;20648;-65
2021/12/31 11:29:45;;;;;;;1.40;1.25;;;14.40;98.00;;;;;;4981899;28;20031;-65
2021/12/31 11:32:11;;;;;;;0.75;0.65;;;14.30;98.20;;;;;;4981011;28;20030;-65
2021/12/31 11:34:37;;;;;;;2.85;0.90;;;14.40;98.20;;;;;;4983560;28;20038;-65
2021/12/31 11:37:03;;;;;;;0.50;0.30;;;14.40;97.90;;;;;;4987150;28;20412;-65
2021/12/31 11:39:36;;;;;;;0.20;0.20;;;14.40;98.20;;;;;;4982832;28;20042;-65
2021/12/31 11:42:07;;;;;;;0.77;0.40;;;14.50;97.80;;;;;;4984655;28;20035;-65
2021/12/31 11:44:34;;;;;;;0.73;0.40;;;14.50;97.90;;;;;;4980689;28;20501;-65
2021/12/31 11:47:17;;;;;;;0.30;0.30;;;14.50;97.40;;;;;;4979722;28;20288;-65
2021/12/31 11:49:45;;;;;;;0.73;0.40;;;14.40;97.40;;;;;;4982237;28;20047;-65
2021/12/31 11:52:20;;;;;;;0.40;0.38;;;14.40;97.70;;;;;;4982090;28;20031;-64
2021/12/31 11:54:47;;;;;;;0.30;0.20;;;14.40;97.50;;;;;;4982728;28;20030;-65
2021/12/31 11:57:28;;;;;;;0.55;0.55;;;14.40;97.20;;;;;;4979434;28;20049;-65
2021/12/31 11:59:55;;;;;;;0.85;0.40;;;14.40;96.20;;;;;;4984242;28;20746;-65
2021/12/31 12:02:40;;;;;;;0.93;0.57;;;14.50;96.90;;;;;;4979667;28;20035;-65
2021/12/31 12:05:11;;;;;;;0.40;0.35;;;14.50;96.90;;;;;;4982122;28;20050;-65
2021/12/31 12:07:51;;;;;;;0.47;0.30;;;14.50;97.00;;;;;;4982856;28;20173;-65
2021/12/31 12:10:25;;;;;;;1.70;1.60;;;14.40;96.90;;;;;;4984036;28;20397;-65
2021/12/31 12:12:56;;;;;;;1.58;0.95;;;14.50;96.70;;;;;;4977556;28;20033;-65
2021/12/31 12:15:27;;;;;;;1.48;0.75;;;14.50;96.80;;;;;;4982204;28;20654;-65
2021/12/31 12:17:53;;;;;;;0.98;0.65;;;14.50;97.60;;;;;;4983926;28;20022;-62
2021/12/31 12:20:19;;;;;;;3.15;0.30;;;;;;;;;;4980340;28;20072;-65
2021/12/31 12:22:50;;;;;;;0.20;0.20;;;15.00;96.50;;;;;;4981378;28;20117;-65
2021/12/31 12:25:25;;;;;;;0.82;0.70;;;15.10;95.00;;;;;;4983939;28;20058;-65
2021/12/31 12:27:58;;;;;;;1.30;0.68;;;15.00;95.20;;;;;;4982432;28;20037;-65
2021/12/31 12:30:24;;;;;;;0.20;0.20;;;15.00;95.20;;;;;;4983547;28;20395;-64
2021/12/31 12:33:06;;;;;;;2.70;2.50;;;15.00;94.30;;;;;;4979422;28;20022;-65
2021/12/31 12:35:37;;;;;;;4.60;2.78;;;14.90;94.40;;;;;;4981743;28;20034;-65
2021/12/31 12:38:12;;;;;;;1.10;1.00;;;14.90;94.80;;;;;;4981013;28;20034;-64
2021/12/31 12:40:43;;;;;;;1.58;1.45;;;14.90;94.90;;;;;;4982060;28;20062;-65
2021/12/31 12:43:17;;;;;;;1.23;1.13;;;14.90;94.70;;;;;;4980085;28;20026;-65
2021/12/31 12:45:54;;;;;;;3.05;2.72;;;14.80;95.10;;;;;;4983939;28;20207;-65
2021/12/31 12:48:30;;;;;;;0.40;0.40;;;14.80;94.80;;;;;;4985783;28;20062;-64
2021/12/31 12:50:57;;;;;;;0.20;0.20;;;14.90;94.80;;;;;;4982526;28;20058;-65